Time;durP1;ratioP1;P1;durP2;ratioP2;P2;SDS_P1;SDS_P2;PMS_P1;PMS_P2;Temp;Humidity;BMP_temperature;BMP_pressure;BME280_temperature;BME280_humidity;BME280_pressure;Samples;Min_cycle;Max_cycle;Signal;HPM_P1;HPM_P2
2023/08/21 00:01:20;;;;;;;1.50;0.82;;;19.80;99.90;;;;;;4197194;28;20197;-83
2023/08/21 00:03:22;;;;;;;2.72;0.38;;;19.90;99.90;;;;;;4196850;28;20175;-83
2023/08/21 00:05:22;;;;;;;1.25;0.50;;;20.00;99.90;;;;;;4196925;28;20170;-83
2023/08/21 00:07:23;;;;;;;0.68;0.30;;;20.00;99.90;;;;;;4197026;28;20174;-83
2023/08/21 00:09:24;;;;;;;1.30;0.60;;;19.90;99.90;;;;;;4197179;28;20244;-87
2023/08/21 00:11:25;;;;;;;0.50;0.13;;;19.90;99.90;;;;;;4180584;28;20196;-87
2023/08/21 00:13:25;;;;;;;1.73;0.52;;;19.90;99.90;;;;;;4180461;28;20186;-82
2023/08/21 00:15:26;;;;;;;0.60;0.30;;;19.90;99.90;;;;;;4197112;28;20182;-83
2023/08/21 00:17:27;;;;;;;1.65;0.63;;;20.20;99.90;;;;;;4198206;28;20170;-83
2023/08/21 00:19:28;;;;;;;1.27;0.68;;;20.00;99.90;;;;;;4196889;28;20171;-82
2023/08/21 00:21:29;;;;;;;1.13;0.30;;;19.80;99.90;;;;;;4196716;28;20282;-82
2023/08/21 00:23:30;;;;;;;0.20;0.20;;;19.80;99.90;;;;;;4198160;28;20167;-82
2023/08/21 00:25:31;;;;;;;1.75;0.65;;;19.80;99.90;;;;;;4197895;28;20170;-82
2023/08/21 00:27:32;;;;;;;0.20;0.20;;;19.80;99.90;;;;;;4197963;28;20205;-82
2023/08/21 00:29:32;;;;;;;4.38;0.43;;;19.80;99.90;;;;;;4196906;28;20285;-83
2023/08/21 00:31:33;;;;;;;3.60;0.55;;;19.80;99.90;;;;;;4196810;28;20182;-83
2023/08/21 00:33:34;;;;;;;0.65;0.50;;;19.60;99.90;;;;;;4196678;28;20170;-83
2023/08/21 00:35:35;;;;;;;2.35;1.05;;;19.50;99.90;;;;;;4196891;28;20682;-83
2023/08/21 00:37:36;;;;;;;2.63;0.63;;;19.40;99.90;;;;;;4180250;28;20167;-83
2023/08/21 00:39:37;;;;;;;1.17;0.85;;;19.50;99.90;;;;;;4196507;28;20567;-83
2023/08/21 00:41:37;;;;;;;1.60;0.60;;;19.60;99.90;;;;;;4196814;28;20163;-82
2023/08/21 00:43:38;;;;;;;0.10;0.10;;;19.90;99.90;;;;;;4180113;28;20180;-82
2023/08/21 00:45:42;;;;;;;1.60;0.65;;;20.00;99.90;;;;;;4179899;28;20160;-83
2023/08/21 00:47:43;;;;;;;2.20;0.45;;;20.00;99.90;;;;;;4179907;28;20187;-83
2023/08/21 00:49:44;;;;;;;1.58;0.30;;;20.10;99.90;;;;;;4200080;28;20188;-83
2023/08/21 00:51:45;;;;;;;4.80;0.75;;;20.20;99.90;;;;;;4199980;28;20221;-83
2023/08/21 00:53:46;;;;;;;0.22;0.20;;;20.00;99.90;;;;;;4200945;28;20229;-83
2023/08/21 00:55:47;;;;;;;0.63;0.30;;;19.80;99.90;;;;;;4201101;28;20163;-82
2023/08/21 00:57:48;;;;;;;2.38;0.52;;;20.00;99.90;;;;;;4183121;28;20179;-83
2023/08/21 00:59:49;;;;;;;2.65;0.63;;;20.00;99.90;;;;;;4216508;28;20174;-83
2023/08/21 01:01:50;;;;;;;1.83;0.22;;;20.10;99.90;;;;;;4199597;28;20182;-83
2023/08/21 01:03:51;;;;;;;0.43;0.25;;;20.20;99.90;;;;;;4200945;28;20619;-83
2023/08/21 01:05:51;;;;;;;1.23;0.50;;;20.10;99.90;;;;;;4183151;28;20553;-82
2023/08/21 01:08:05;;;;;;;1.75;0.20;;;20.20;99.90;;;;;;4216432;28;20163;-83
2023/08/21 01:10:34;;;;;;;1.40;0.20;;;20.10;99.90;;;;;;4182939;28;20868;-83
2023/08/21 01:12:50;;;;;;;0.20;0.20;;;19.80;99.90;;;;;;4200840;28;20190;-83
2023/08/21 01:15:03;;;;;;;0.50;0.32;;;19.60;99.90;;;;;;4183027;28;20175;-83
2023/08/21 01:17:06;;;;;;;0.43;0.10;;;19.60;99.90;;;;;;4199571;28;20174;-83
2023/08/21 01:19:18;;;;;;;4.85;0.63;;;19.50;99.90;;;;;;4182962;28;20301;-83
2023/08/21 01:21:20;;;;;;;3.70;0.45;;;19.50;99.90;;;;;;4199570;28;20620;-83
2023/08/21 01:23:36;;;;;;;1.58;0.30;;;19.60;99.90;;;;;;4199086;28;20627;-83
2023/08/21 01:25:37;;;;;;;0.75;0.20;;;19.50;99.90;;;;;;4199445;28;20185;-84
2023/08/21 01:27:45;;;;;;;3.47;0.68;;;19.60;99.90;;;;;;4199351;28;20206;-83
2023/08/21 01:29:47;;;;;;;0.60;0.40;;;19.70;99.90;;;;;;4199183;28;20271;-83
2023/08/21 01:31:58;;;;;;;0.82;0.40;;;19.70;99.90;;;;;;4199220;28;20206;-83
2023/08/21 01:34:04;;;;;;;4.03;0.40;;;19.60;99.90;;;;;;4199191;28;20635;-83
2023/08/21 01:36:05;;;;;;;1.85;0.40;;;19.50;99.90;;;;;;4182375;28;20206;-82
2023/08/21 01:38:07;;;;;;;0.55;0.35;;;19.60;99.90;;;;;;4198960;28;20670;-83
2023/08/21 01:40:08;;;;;;;0.68;0.20;;;19.60;99.90;;;;;;4199015;28;20191;-83
2023/08/21 01:42:09;;;;;;;1.23;0.38;;;19.70;99.90;;;;;;4199286;28;20332;-83
2023/08/21 01:44:10;;;;;;;0.30;0.20;;;19.60;99.90;;;;;;4199095;28;20567;-83
2023/08/21 01:46:12;;;;;;;1.95;0.20;;;19.60;99.90;;;;;;4199040;28;20179;-83
2023/08/21 01:48:13;;;;;;;1.67;0.17;;;19.70;99.90;;;;;;4198846;28;20198;-83
2023/08/21 01:50:14;;;;;;;5.00;0.25;;;19.80;99.90;;;;;;4199061;28;20567;-83
2023/08/21 01:52:14;;;;;;;0.47;0.10;;;19.70;99.90;;;;;;4182502;28;20528;-83
2023/08/21 01:54:15;;;;;;;2.03;0.50;;;19.80;99.90;;;;;;4182503;28;20175;-82
2023/08/21 01:56:16;;;;;;;2.85;0.40;;;19.70;99.90;;;;;;4215850;28;20173;-83
2023/08/21 01:58:17;;;;;;;2.85;0.75;;;19.70;99.90;;;;;;4182435;28;20225;-82
2023/08/21 02:00:17;;;;;;;0.20;0.20;;;19.80;99.90;;;;;;4214356;28;20194;-83
2023/08/21 02:02:19;;;;;;;0.82;0.43;;;19.80;99.90;;;;;;4198728;28;20177;-83
2023/08/21 02:04:19;;;;;;;2.45;0.43;;;19.80;99.90;;;;;;4182292;28;20282;-83
2023/08/21 02:06:20;;;;;;;1.45;0.20;;;19.70;99.90;;;;;;4198780;28;20210;-83
2023/08/21 02:08:21;;;;;;;1.77;0.60;;;19.80;99.90;;;;;;4198808;28;20593;-83
2023/08/21 02:10:21;;;;;;;4.90;0.73;;;19.80;99.90;;;;;;4199912;28;20179;-83
2023/08/21 02:12:23;;;;;;;1.33;0.63;;;19.80;99.90;;;;;;4198451;28;20175;-83
2023/08/21 02:14:24;;;;;;;0.63;0.30;;;19.80;99.90;;;;;;4198624;28;20179;-83
2023/08/21 02:16:25;;;;;;;0.20;0.20;;;19.80;99.90;;;;;;4182009;28;20174;-83
2023/08/21 02:18:26;;;;;;;6.78;0.50;;;19.80;99.90;;;;;;4198537;28;20582;-83
2023/08/21 02:20:27;;;;;;;3.40;0.32;;;19.80;99.90;;;;;;4198370;28;20190;-83
2023/08/21 02:22:27;;;;;;;2.15;0.60;;;19.80;99.90;;;;;;4198468;28;20242;-83
2023/08/21 02:24:28;;;;;;;2.60;0.20;;;19.80;99.90;;;;;;4198694;28;20171;-83
2023/08/21 02:26:29;;;;;;;1.02;0.60;;;19.90;99.90;;;;;;4198440;28;20723;-83
2023/08/21 02:28:31;;;;;;;0.20;0.20;;;19.90;99.90;;;;;;4215063;28;20198;-83
2023/08/21 02:30:32;;;;;;;2.42;0.60;;;20.00;99.90;;;;;;4181809;28;20855;-83
2023/08/21 02:32:32;;;;;;;1.60;0.30;;;20.00;99.90;;;;;;4215013;28;20638;-83
2023/08/21 02:34:34;;;;;;;0.57;0.30;;;20.00;99.90;;;;;;4198352;28;20171;-83
2023/08/21 02:36:35;;;;;;;0.20;0.15;;;20.00;99.90;;;;;;4198263;28;20198;-83
2023/08/21 02:38:36;;;;;;;0.30;0.25;;;20.00;99.90;;;;;;4181457;28;20320;-83
2023/08/21 02:40:38;;;;;;;0.47;0.20;;;20.00;99.90;;;;;;4214806;28;20186;-83
2023/08/21 02:42:39;;;;;;;0.90;0.40;;;19.80;99.90;;;;;;4199532;28;20191;-82
2023/08/21 02:44:40;;;;;;;2.90;0.30;;;19.60;99.90;;;;;;4181660;28;20167;-83
2023/08/21 02:46:40;;;;;;;0.40;0.30;;;19.60;99.90;;;;;;4199422;28;20175;-83
2023/08/21 02:48:41;;;;;;;0.60;0.35;;;19.60;99.90;;;;;;4198040;28;20194;-83
2023/08/21 02:50:42;;;;;;;0.70;0.60;;;19.40;99.90;;;;;;4197803;28;20690;-83
2023/08/21 02:52:43;;;;;;;0.65;0.50;;;19.40;99.90;;;;;;4181414;28;20648;-83
2023/08/21 02:54:43;;;;;;;1.05;0.22;;;19.40;99.90;;;;;;4197900;28;20613;-83
2023/08/21 02:56:44;;;;;;;2.72;0.73;;;19.60;99.90;;;;;;4197845;28;20236;-83
2023/08/21 02:58:45;;;;;;;1.00;0.40;;;19.60;99.90;;;;;;4197848;28;20547;-83
2023/08/21 03:00:46;;;;;;;1.05;0.68;;;19.70;99.90;;;;;;4197937;28;20199;-83
2023/08/21 03:02:47;;;;;;;1.55;0.40;;;19.70;99.90;;;;;;4197715;28;20179;-82
2023/08/21 03:04:48;;;;;;;1.65;0.40;;;19.60;99.90;;;;;;4197753;28;20173;-83
2023/08/21 03:06:49;;;;;;;0.45;0.20;;;19.60;99.90;;;;;;4181307;28;20168;-83
2023/08/21 03:08:50;;;;;;;2.05;0.38;;;19.50;99.90;;;;;;4197729;28;20238;-83
2023/08/21 03:10:52;;;;;;;0.50;0.30;;;19.50;99.90;;;;;;4197837;28;20663;-83
2023/08/21 03:12:54;;;;;;;0.10;0.10;;;19.60;99.90;;;;;;4214118;28;20170;-83
2023/08/21 03:14:55;;;;;;;1.42;0.45;;;19.50;99.90;;;;;;4181022;28;20182;-83
2023/08/21 03:16:56;;;;;;;0.77;0.20;;;19.50;99.90;;;;;;4214399;28;20170;-83
2023/08/21 03:18:59;;;;;;;2.15;0.50;;;19.50;99.90;;;;;;4181031;28;20203;-83
2023/08/21 03:21:01;;;;;;;0.85;0.40;;;19.50;99.90;;;;;;4181190;28;20278;-83
2023/08/21 03:23:03;;;;;;;0.40;0.40;;;19.50;99.90;;;;;;4197583;28;20170;-83
2023/08/21 03:25:04;;;;;;;1.65;0.35;;;19.50;99.90;;;;;;4197440;28;20178;-83
2023/08/21 03:27:05;;;;;;;1.33;0.68;;;19.40;99.90;;;;;;4197624;28;20544;-83
2023/08/21 03:29:06;;;;;;;1.38;0.17;;;19.50;99.90;;;;;;4180719;28;20337;-83
2023/08/21 03:31:06;;;;;;;0.43;0.30;;;19.40;99.90;;;;;;4180761;28;20679;-83
2023/08/21 03:33:08;;;;;;;2.47;0.55;;;19.40;99.90;;;;;;4197312;28;20236;-83
2023/08/21 03:35:09;;;;;;;0.75;0.20;;;19.30;99.90;;;;;;4180982;28;20183;-83
2023/08/21 03:37:10;;;;;;;0.45;0.45;;;19.20;99.90;;;;;;4197486;28;20609;-83
2023/08/21 03:39:11;;;;;;;0.25;0.20;;;19.20;99.90;;;;;;4180687;28;20262;-83
2023/08/21 03:41:17;;;;;;;0.20;0.20;;;19.00;99.90;;;;;;4197044;28;20662;-82
2023/08/21 03:43:18;;;;;;;1.20;0.30;;;18.80;99.90;;;;;;4180757;28;20234;-83
2023/08/21 03:45:19;;;;;;;3.95;0.43;;;18.90;99.90;;;;;;4213890;28;20680;-83
2023/08/21 03:47:19;;;;;;;0.60;0.30;;;18.90;99.90;;;;;;4197020;28;20221;-83
2023/08/21 03:49:32;;;;;;;17.58;1.00;;;18.90;99.90;;;;;;4197649;28;20202;-87
2023/08/21 03:51:33;;;;;;;5.50;0.75;;;19.00;99.90;;;;;;4196863;28;20222;-83
2023/08/21 03:53:33;;;;;;;0.95;0.52;;;19.00;99.90;;;;;;4180445;28;20226;-83
2023/08/21 03:55:34;;;;;;;1.33;0.20;;;18.90;99.90;;;;;;4180672;28;20258;-83
2023/08/21 03:57:35;;;;;;;0.57;0.30;;;18.90;99.90;;;;;;4197185;28;20615;-83
2023/08/21 03:59:36;;;;;;;1.33;0.38;;;18.80;99.90;;;;;;4196990;28;20201;-83
2023/08/21 04:01:37;;;;;;;1.15;0.40;;;18.80;99.90;;;;;;4197232;28;20166;-83
2023/08/21 04:03:38;;;;;;;0.47;0.17;;;18.80;99.90;;;;;;4197040;28;20215;-83
2023/08/21 04:05:39;;;;;;;7.68;0.40;;;18.70;99.90;;;;;;4196982;28;20582;-83
2023/08/21 04:07:40;;;;;;;1.02;0.40;;;18.90;99.90;;;;;;4196937;28;20178;-83
2023/08/21 04:09:40;;;;;;;1.08;0.32;;;18.80;99.90;;;;;;4196905;28;20203;-82
2023/08/21 04:11:41;;;;;;;3.42;0.68;;;18.60;99.90;;;;;;4197165;28;20216;-84
2023/08/21 04:13:42;;;;;;;1.08;0.75;;;18.60;99.90;;;;;;4180299;28;20175;-82
2023/08/21 04:15:48;;;;;;;2.85;0.50;;;18.50;99.90;;;;;;4197067;28;20758;-83
2023/08/21 04:17:49;;;;;;;1.65;0.77;;;18.40;99.90;;;;;;4196876;28;20519;-83
2023/08/21 04:19:50;;;;;;;0.88;0.52;;;18.40;99.90;;;;;;4196702;28;20179;-83
2023/08/21 04:21:51;;;;;;;0.80;0.22;;;18.40;99.90;;;;;;4179928;28;20202;-83
2023/08/21 04:23:53;;;;;;;0.35;0.35;;;18.60;99.90;;;;;;4195984;28;20182;-84
2023/08/21 04:26:01;;;;;;;1.00;0.20;;;18.60;99.90;;;;;;4180130;28;20167;-84
2023/08/21 04:28:02;;;;;;;2.97;0.32;;;18.70;99.90;;;;;;4180054;28;20206;-83
2023/08/21 04:30:04;;;;;;;1.95;0.82;;;18.80;99.90;;;;;;4180090;28;20277;-83
2023/08/21 04:32:06;;;;;;;0.32;0.30;;;18.90;99.90;;;;;;4180013;28;20179;-84
2023/08/21 04:34:07;;;;;;;2.95;0.90;;;18.70;99.90;;;;;;4180263;28;20167;-82
2023/08/21 04:36:14;;;;;;;4.75;0.55;;;18.90;99.90;;;;;;4196862;28;20167;-83
2023/08/21 04:38:15;;;;;;;0.55;0.43;;;18.90;99.90;;;;;;4180244;28;20242;-82
2023/08/21 04:40:17;;;;;;;0.30;0.30;;;18.90;99.90;;;;;;4196692;28;20183;-82
2023/08/21 04:42:18;;;;;;;1.30;0.25;;;19.00;99.90;;;;;;4196763;28;20171;-84
2023/08/21 04:44:20;;;;;;;1.45;0.60;;;18.80;99.90;;;;;;4180043;28;20172;-82
2023/08/21 04:46:21;;;;;;;1.88;0.40;;;18.80;99.90;;;;;;4196616;28;20218;-83
2023/08/21 04:48:23;;;;;;;0.88;0.25;;;18.80;99.90;;;;;;4196725;28;20203;-84
2023/08/21 04:50:24;;;;;;;0.93;0.70;;;18.80;99.90;;;;;;4196490;28;20295;-82
2023/08/21 04:52:25;;;;;;;1.45;0.85;;;18.90;99.90;;;;;;4179887;28;20251;-82
2023/08/21 04:54:27;;;;;;;2.83;0.60;;;18.90;99.90;;;;;;4196618;28;20163;-83
2023/08/21 04:56:28;;;;;;;1.05;0.43;;;18.90;99.90;;;;;;4196659;28;20719;-84
2023/08/21 04:58:29;;;;;;;0.82;0.40;;;18.90;99.90;;;;;;4196485;28;20163;-84
2023/08/21 05:00:30;;;;;;;0.25;0.25;;;18.90;99.90;;;;;;4179893;28;20726;-84
2023/08/21 05:02:31;;;;;;;0.95;0.63;;;18.90;99.90;;;;;;4196489;28;20163;-84
2023/08/21 05:04:33;;;;;;;0.82;0.50;;;18.80;99.90;;;;;;4196557;28;20179;-83
2023/08/21 05:06:34;;;;;;;0.75;0.30;;;18.50;99.90;;;;;;4179977;28;20662;-84
2023/08/21 05:08:35;;;;;;;3.28;0.60;;;18.40;99.90;;;;;;4196364;28;20260;-84
2023/08/21 05:10:37;;;;;;;3.55;0.65;;;18.50;99.90;;;;;;4213065;28;20190;-84
2023/08/21 05:12:37;;;;;;;1.33;0.30;;;18.50;99.90;;;;;;4196259;28;20179;-83
2023/08/21 05:14:38;;;;;;;0.70;0.57;;;18.30;99.90;;;;;;4196478;28;20273;-84
2023/08/21 05:16:39;;;;;;;0.77;0.55;;;18.40;99.90;;;;;;4196389;28;20267;-83
2023/08/21 05:18:40;;;;;;;1.42;0.50;;;18.20;99.90;;;;;;4179662;28;20179;-84
2023/08/21 05:20:41;;;;;;;1.10;0.60;;;18.20;99.90;;;;;;4196435;28;20750;-83
2023/08/21 05:22:42;;;;;;;4.72;1.05;;;18.20;99.90;;;;;;4196405;28;20659;-85
2023/08/21 05:24:44;;;;;;;2.90;1.10;;;18.30;99.90;;;;;;4196314;28;20174;-83
2023/08/21 05:26:45;;;;;;;2.45;0.52;;;18.50;99.90;;;;;;4197393;28;20162;-84
2023/08/21 05:28:46;;;;;;;0.88;0.57;;;18.60;99.90;;;;;;4179543;28;20695;-88
2023/08/21 05:30:48;;;;;;;1.25;0.40;;;18.80;99.90;;;;;;4212957;28;20243;-84
2023/08/21 05:32:49;;;;;;;4.97;0.57;;;18.90;99.90;;;;;;4179429;28;20283;-84
2023/08/21 05:34:50;;;;;;;0.52;0.40;;;19.00;99.90;;;;;;4213545;28;20171;-84
2023/08/21 05:36:54;;;;;;;0.35;0.32;;;19.00;99.90;;;;;;4182823;28;20729;-84
2023/08/21 05:38:56;;;;;;;4.88;0.85;;;19.10;99.90;;;;;;4199169;28;20167;-84
2023/08/21 05:41:01;;;;;;;2.42;0.50;;;19.20;99.90;;;;;;4183047;28;20608;-84
2023/08/21 05:43:02;;;;;;;3.25;0.50;;;19.20;99.90;;;;;;4198997;28;20167;-84
2023/08/21 05:45:05;;;;;;;2.50;1.17;;;19.30;99.90;;;;;;4182749;28;20175;-83
2023/08/21 05:47:07;;;;;;;3.58;1.05;;;19.30;99.90;;;;;;4182546;28;20183;-84
2023/08/21 05:49:08;;;;;;;6.47;1.13;;;19.50;99.90;;;;;;4198687;28;20213;-83
2023/08/21 05:51:09;;;;;;;7.03;1.45;;;19.40;99.90;;;;;;4198974;28;20191;-84
2023/08/21 05:53:09;;;;;;;1.60;0.75;;;19.50;99.90;;;;;;4199209;28;20179;-84
2023/08/21 05:55:10;;;;;;;10.90;1.77;;;19.40;99.90;;;;;;4199096;28;20171;-84
2023/08/21 05:57:12;;;;;;;3.80;1.00;;;19.40;99.90;;;;;;4199101;28;20183;-84
2023/08/21 05:59:27;;;;;;;5.35;0.90;;;19.10;99.90;;;;;;4182293;28;20203;-83
2023/08/21 06:01:28;;;;;;;8.43;1.00;;;19.00;99.90;;;;;;4182183;28;20695;-84
2023/08/21 06:03:29;;;;;;;2.50;1.10;;;19.10;99.90;;;;;;4198772;28;20167;-84
2023/08/21 06:06:05;;;;;;;3.45;0.40;;;19.10;99.90;;;;;;4184050;28;20290;-84
2023/08/21 06:08:08;;;;;;;3.03;1.55;;;19.40;99.90;;;;;;4182201;28;20690;-84
2023/08/21 06:10:14;;;;;;;2.72;1.33;;;19.50;99.90;;;;;;4182033;28;20207;-84
2023/08/21 06:12:15;;;;;;;1.98;0.85;;;19.60;99.90;;;;;;4182064;28;20194;-84
2023/08/21 06:14:17;;;;;;;1.08;0.70;;;19.60;99.90;;;;;;4198777;28;20610;-84
2023/08/21 06:16:18;;;;;;;3.40;0.90;;;19.60;99.90;;;;;;4181977;28;20168;-84
2023/08/21 06:18:20;;;;;;;5.50;1.50;;;19.80;99.90;;;;;;4182111;28;20631;-84
2023/08/21 06:20:22;;;;;;;5.22;1.35;;;19.80;99.90;;;;;;4198264;28;20248;-84
2023/08/21 06:22:22;;;;;;;4.30;1.10;;;19.90;99.90;;;;;;4198556;28;20647;-84
2023/08/21 06:24:23;;;;;;;1.73;1.00;;;20.10;99.90;;;;;;4198481;28;20175;-84
2023/08/21 06:26:29;;;;;;;1.63;0.80;;;19.90;99.90;;;;;;4182694;28;20686;-83
2023/08/21 06:28:30;;;;;;;2.80;1.17;;;20.00;99.90;;;;;;4198379;28;20215;-84
2023/08/21 06:30:31;;;;;;;4.15;1.23;;;20.20;99.90;;;;;;4198297;28;20218;-83
2023/08/21 06:32:32;;;;;;;2.35;0.75;;;20.30;99.90;;;;;;4198263;28;20175;-84
2023/08/21 06:34:33;;;;;;;2.88;1.27;;;20.40;99.90;;;;;;4198312;28;20746;-84
2023/08/21 06:36:34;;;;;;;4.57;1.52;;;20.30;99.90;;;;;;4198235;28;20262;-84
2023/08/21 06:38:35;;;;;;;1.90;0.98;;;20.40;99.90;;;;;;4198300;28;20179;-84
2023/08/21 06:40:36;;;;;;;5.22;0.90;;;20.40;99.90;;;;;;4198306;28;20194;-83
2023/08/21 06:42:37;;;;;;;5.28;0.95;;;20.40;99.90;;;;;;4181431;28;20164;-83
2023/08/21 06:44:38;;;;;;;6.00;0.90;;;20.40;99.90;;;;;;4181622;28;20172;-83
2023/08/21 06:46:39;;;;;;;3.10;1.20;;;20.00;99.90;;;;;;4197058;28;20205;-83
2023/08/21 06:48:43;;;;;;;5.05;1.90;;;19.90;99.90;;;;;;4214433;28;20801;-83
2023/08/21 06:50:44;;;;;;;1.90;1.42;;;20.00;99.90;;;;;;4197904;28;20206;-83
2023/08/21 06:52:44;;;;;;;1.73;0.73;;;20.10;99.90;;;;;;4181299;28;20171;-83
2023/08/21 06:54:45;;;;;;;3.47;1.40;;;20.30;99.90;;;;;;4197987;28;20208;-83
2023/08/21 06:56:46;;;;;;;5.25;1.15;;;20.40;99.90;;;;;;4197971;28;20205;-85
2023/08/21 06:58:48;;;;;;;1.50;0.95;;;20.60;99.90;;;;;;4181571;28;20290;-83
2023/08/21 07:00:48;;;;;;;3.85;1.23;;;20.60;99.90;;;;;;4197650;28;20194;-83
2023/08/21 07:02:49;;;;;;;5.97;1.17;;;20.80;99.90;;;;;;4197629;28;20167;-83
2023/08/21 07:04:50;;;;;;;1.02;0.80;;;20.80;99.90;;;;;;4181245;28;20210;-83
2023/08/21 07:06:51;;;;;;;2.00;1.33;;;20.70;99.90;;;;;;4197797;28;20167;-83
2023/08/21 07:08:51;;;;;;;3.00;1.35;;;20.80;99.90;;;;;;4197742;28;20764;-83
2023/08/21 07:10:53;;;;;;;3.78;1.35;;;20.60;99.90;;;;;;4198817;28;20552;-83
2023/08/21 07:12:53;;;;;;;8.23;2.30;;;20.50;99.90;;;;;;4197592;28;20178;-82
2023/08/21 07:14:54;;;;;;;3.33;1.48;;;20.50;99.90;;;;;;4181124;28;20159;-84
2023/08/21 07:16:55;;;;;;;4.95;1.00;;;21.20;99.90;;;;;;4197615;28;20182;-83
2023/08/21 07:18:56;;;;;;;3.72;1.50;;;22.10;99.90;;;;;;4197605;28;20159;-83
2023/08/21 07:20:56;;;;;;;5.82;1.55;;;23.40;99.90;;;;;;4197601;28;20641;-84
2023/08/21 07:22:58;;;;;;;2.97;1.38;;;24.30;99.90;;;;;;4199014;28;20167;-83
2023/08/21 07:25:00;;;;;;;3.33;1.15;;;25.30;99.90;;;;;;4181217;28;20624;-84
2023/08/21 07:27:01;;;;;;;1.30;0.80;;;26.10;99.90;;;;;;4197356;28;20229;-84
2023/08/21 07:29:03;;;;;;;8.00;1.65;;;27.50;99.90;;;;;;4197517;28;20220;-84
2023/08/21 07:31:04;;;;;;;2.53;1.10;;;28.60;99.90;;;;;;4197537;28;20186;-84
2023/08/21 07:33:05;;;;;;;5.85;1.55;;;29.70;99.90;;;;;;4197317;28;20618;-84
2023/08/21 07:35:07;;;;;;;2.22;1.10;;;30.60;99.90;;;;;;4181007;28;20171;-84
2023/08/21 07:37:09;;;;;;;2.83;1.52;;;30.70;99.90;;;;;;4197607;28;20194;-84
2023/08/21 07:39:09;;;;;;;4.03;1.40;;;30.80;99.90;;;;;;4197324;28;20251;-82
2023/08/21 07:41:11;;;;;;;1.73;1.20;;;30.90;99.90;;;;;;4180832;28;20187;-82
2023/08/21 07:43:12;;;;;;;3.38;1.15;;;31.10;99.90;;;;;;4198591;28;20161;-83
2023/08/21 07:45:13;;;;;;;2.65;1.05;;;31.20;99.90;;;;;;4198324;28;20174;-82
2023/08/21 07:47:14;;;;;;;2.30;1.45;;;31.30;99.90;;;;;;4180592;28;20179;-82
2023/08/21 07:49:14;;;;;;;2.42;1.20;;;30.80;99.90;;;;;;4197136;28;20249;-82
2023/08/21 07:51:15;;;;;;;3.92;1.75;;;31.00;99.90;;;;;;4197111;28;20198;-83
2023/08/21 07:53:16;;;;;;;3.95;1.40;;;31.30;99.90;;;;;;4180483;28;20179;-82
2023/08/21 07:55:16;;;;;;;2.65;1.20;;;32.00;99.90;;;;;;4197039;28;20216;-83
2023/08/21 07:57:17;;;;;;;2.67;1.27;;;32.20;99.90;;;;;;4197070;28;20169;-82
2023/08/21 07:59:19;;;;;;;4.10;1.48;;;31.80;99.90;;;;;;4196344;28;20167;-82
2023/08/21 08:01:20;;;;;;;4.32;1.35;;;30.70;99.90;;;;;;4198166;28;20198;-82
2023/08/21 08:03:21;;;;;;;4.82;1.13;;;30.80;99.90;;;;;;4197049;28;20224;-82
2023/08/21 08:05:22;;;;;;;2.42;0.90;;;31.50;99.90;;;;;;4180388;28;20196;-83
2023/08/21 08:07:23;;;;;;;3.35;1.38;;;31.40;99.90;;;;;;4197091;28;20158;-82
2023/08/21 08:09:23;;;;;;;1.35;1.13;;;31.80;99.90;;;;;;4197079;28;20209;-83
2023/08/21 08:11:24;;;;;;;6.88;1.60;;;32.70;99.90;;;;;;4180455;28;20651;-83
2023/08/21 08:13:25;;;;;;;1.65;1.10;;;33.30;99.90;;;;;;4197016;28;20190;-83
2023/08/21 08:15:26;;;;;;;1.65;0.82;;;33.30;99.90;;;;;;4180440;28;20233;-83
2023/08/21 08:17:26;;;;;;;3.55;1.90;;;32.60;99.90;;;;;;4180211;28;20254;-83
2023/08/21 08:19:28;;;;;;;2.40;1.27;;;33.00;99.90;;;;;;4196786;28;20174;-83
2023/08/21 08:21:29;;;;;;;1.98;1.40;;;32.80;99.90;;;;;;4196857;28;20190;-83
2023/08/21 08:23:29;;;;;;;2.72;1.17;;;33.30;99.90;;;;;;4180313;28;20174;-84
2023/08/21 08:25:30;;;;;;;2.47;1.05;;;32.80;99.90;;;;;;4196886;28;20261;-82
2023/08/21 08:27:31;;;;;;;1.95;1.02;;;33.20;99.90;;;;;;4196823;28;20232;-87
2023/08/21 08:29:31;;;;;;;4.32;1.45;;;33.50;99.90;;;;;;4196754;28;20214;-83
2023/08/21 08:31:32;;;;;;;1.92;1.10;;;32.80;99.90;;;;;;4198137;28;20209;-82
2023/08/21 08:33:33;;;;;;;2.60;1.35;;;32.30;99.90;;;;;;4213381;28;20170;-85
2023/08/21 08:35:34;;;;;;;2.72;1.10;;;32.60;99.90;;;;;;4198018;28;20167;-85
2023/08/21 08:37:34;;;;;;;2.78;1.27;;;32.80;99.90;;;;;;4196837;28;20173;-82
2023/08/21 08:39:35;;;;;;;1.23;0.77;;;32.70;99.90;;;;;;4198025;28;20631;-82
2023/08/21 08:41:36;;;;;;;1.73;0.75;;;32.90;99.90;;;;;;4197983;28;20196;-82
2023/08/21 08:43:39;;;;;;;2.00;0.82;;;32.20;99.90;;;;;;4196746;28;20224;-82
2023/08/21 08:45:41;;;;;;;1.42;0.75;;;30.70;99.90;;;;;;4196530;28;20208;-82
2023/08/21 08:47:42;;;;;;;2.47;0.98;;;30.70;99.90;;;;;;4180020;28;20167;-84
2023/08/21 08:49:43;;;;;;;2.05;0.80;;;31.30;99.90;;;;;;4196435;28;20594;-84
2023/08/21 08:51:45;;;;;;;2.72;0.80;;;31.60;99.90;;;;;;4180185;28;20171;-82
2023/08/21 08:53:47;;;;;;;1.67;0.80;;;31.70;99.90;;;;;;4180232;28;20644;-84
2023/08/21 08:55:48;;;;;;;2.08;0.90;;;31.00;99.90;;;;;;4180085;28;20212;-84
2023/08/21 08:57:49;;;;;;;2.25;1.05;;;31.60;99.90;;;;;;4213478;28;20180;-85
2023/08/21 08:59:50;;;;;;;0.70;0.50;;;30.80;99.90;;;;;;4196519;28;20209;-82
2023/08/21 09:01:51;;;;;;;0.60;0.60;;;31.30;99.90;;;;;;4196466;28;20162;-82
2023/08/21 09:03:52;;;;;;;3.10;0.63;;;32.50;99.90;;;;;;4196594;28;20178;-83
2023/08/21 09:05:52;;;;;;;1.55;0.85;;;33.60;99.90;;;;;;4196597;28;20174;-83
2023/08/21 09:08:08;;;;;;;3.50;0.95;;;33.90;99.90;;;;;;4196416;28;20173;-82
2023/08/21 09:10:15;;;;;;;3.58;1.05;;;34.40;99.90;;;;;;4197566;28;20673;-83
2023/08/21 09:12:17;;;;;;;2.20;0.73;;;33.50;99.90;;;;;;4199378;28;20174;-83
2023/08/21 09:14:26;;;;;;;3.60;0.90;;;33.70;99.90;;;;;;4183091;28;20182;-83
2023/08/21 09:16:27;;;;;;;1.80;0.70;;;33.20;99.90;;;;;;4200907;28;20174;-83
2023/08/21 09:18:28;;;;;;;2.55;0.98;;;32.80;99.90;;;;;;4199680;28;20207;-82
2023/08/21 09:20:34;;;;;;;2.33;0.55;;;32.10;99.90;;;;;;4200690;28;20562;-83
2023/08/21 09:22:35;;;;;;;1.20;0.80;;;32.00;99.90;;;;;;4200811;28;20169;-83
2023/08/21 09:24:37;;;;;;;3.03;0.77;;;32.00;99.90;;;;;;4200702;28;20253;-83
2023/08/21 09:26:38;;;;;;;2.53;1.08;;;31.60;99.90;;;;;;4200334;28;20166;-82
2023/08/21 09:28:39;;;;;;;3.03;0.60;;;31.60;99.90;;;;;;4182649;28;20653;-83
2023/08/21 09:30:48;;;;;;;1.90;0.70;;;31.30;99.90;;;;;;4199371;28;20194;-82
2023/08/21 09:32:57;;;;;;;1.35;0.50;;;30.80;99.90;;;;;;4182626;28;20260;-82
2023/08/21 09:34:58;;;;;;;1.90;0.90;;;31.50;99.90;;;;;;4182600;28;20217;-83
2023/08/21 09:37:00;;;;;;;1.13;0.50;;;31.70;99.90;;;;;;4216151;28;20158;-85
2023/08/21 09:39:01;;;;;;;1.30;0.47;;;31.80;99.90;;;;;;4199373;28;20166;-85
2023/08/21 09:41:02;;;;;;;0.32;0.20;;;31.40;99.90;;;;;;4198978;28;20197;-83
2023/08/21 09:43:04;;;;;;;0.38;0.38;;;31.20;99.90;;;;;;4199038;28;20663;-85
2023/08/21 09:45:06;;;;;;;1.50;0.63;;;30.90;99.90;;;;;;4200354;28;20624;-85
2023/08/21 09:47:11;;;;;;;1.58;0.77;;;30.40;99.90;;;;;;4182258;28;20192;-85
2023/08/21 09:49:12;;;;;;;0.82;0.22;;;30.10;99.90;;;;;;4182615;28;20253;-84
2023/08/21 09:51:13;;;;;;;2.60;0.40;;;31.20;99.90;;;;;;4199120;28;20655;-82
2023/08/21 09:53:14;;;;;;;1.15;0.35;;;31.80;99.90;;;;;;4183057;28;20174;-82
2023/08/21 09:55:15;;;;;;;0.52;0.32;;;31.10;99.90;;;;;;4198919;28;20217;-82
2023/08/21 09:57:16;;;;;;;3.45;0.88;;;30.70;99.90;;;;;;4198951;28;20709;-82
2023/08/21 09:59:18;;;;;;;0.88;0.25;;;30.80;99.90;;;;;;4200310;28;20166;-82
2023/08/21 10:01:20;;;;;;;0.63;0.38;;;31.10;99.90;;;;;;4200250;28;20183;-84
2023/08/21 10:03:22;;;;;;;0.73;0.28;;;31.00;99.90;;;;;;4198860;28;20171;-84
2023/08/21 10:05:23;;;;;;;0.28;0.28;;;30.30;99.90;;;;;;4182230;28;20171;-84
2023/08/21 10:07:27;;;;;;;0.95;0.60;;;29.50;99.90;;;;;;4198958;28;20520;-84
2023/08/21 10:09:29;;;;;;;2.08;0.65;;;29.40;99.90;;;;;;4198838;28;20213;-84
2023/08/21 10:11:30;;;;;;;2.08;0.60;;;30.30;99.90;;;;;;4181956;28;20194;-84
2023/08/21 10:13:33;;;;;;;1.75;0.38;;;30.80;99.90;;;;;;4181856;28;20167;-84
2023/08/21 10:15:35;;;;;;;1.13;0.47;;;30.90;99.90;;;;;;4182223;28;20272;-84
2023/08/21 10:17:36;;;;;;;0.52;0.35;;;30.40;99.90;;;;;;4199817;28;20253;-84
2023/08/21 10:19:37;;;;;;;1.73;0.50;;;30.10;99.90;;;;;;4182014;28;20281;-84
2023/08/21 10:21:38;;;;;;;2.53;0.63;;;29.10;99.90;;;;;;4214128;28;20162;-84
2023/08/21 10:23:40;;;;;;;0.90;0.57;;;28.70;99.90;;;;;;4198533;28;20167;-84
2023/08/21 10:25:42;;;;;;;4.22;1.17;;;29.00;99.90;;;;;;4199941;28;20163;-83
2023/08/21 10:27:45;;;;;;;2.47;0.55;;;28.80;99.90;;;;;;4198506;28;20171;-84
2023/08/21 10:29:57;;;;;;;3.55;0.77;;;28.50;99.90;;;;;;4198655;28;20281;-84
2023/08/21 10:32:03;;;;;;;1.05;0.50;;;28.40;99.90;;;;;;4198276;28;20198;-83
2023/08/21 10:34:06;;;;;;;1.33;0.40;;;28.00;99.90;;;;;;4198300;28;20175;-83
2023/08/21 10:36:10;;;;;;;0.45;0.40;;;28.00;99.90;;;;;;4181881;28;20175;-83